Time;durP1;ratioP1;P1;durP2;ratioP2;P2;SDS_P1;SDS_P2;PMS_P1;PMS_P2;Temp;Humidity;BMP_temperature;BMP_pressure;BME280_temperature;BME280_humidity;BME280_pressure;Samples;Min_cycle;Max_cycle;Signal;HPM_P1;HPM_P2
2023/02/20 00:01:22;;;;;;;9.00;4.30;;;4.00;99.90;;;;;;5014226;28;20507;-67
2023/02/20 00:03:48;;;;;;;9.38;4.60;;;4.00;99.90;;;;;;5012670;28;20057;-66
2023/02/20 00:06:14;;;;;;;11.07;4.13;;;4.00;99.90;;;;;;5008676;28;20027;-66
2023/02/20 00:08:40;;;;;;;13.40;5.07;;;4.00;99.90;;;;;;4999710;28;20080;-65
2023/02/20 00:11:06;;;;;;;13.70;5.25;;;4.00;99.90;;;;;;5012072;28;20108;-66
2023/02/20 00:13:31;;;;;;;9.98;5.20;;;3.90;99.90;;;;;;5004063;28;20432;-66
2023/02/20 00:15:57;;;;;;;8.13;3.75;;;3.90;99.90;;;;;;5006318;28;20034;-66
2023/02/20 00:18:23;;;;;;;10.18;3.75;;;3.90;99.90;;;;;;5001877;28;20034;-66
2023/02/20 00:20:48;;;;;;;9.45;3.78;;;4.00;99.90;;;;;;5001255;28;20057;-66
2023/02/20 00:23:14;;;;;;;9.60;3.65;;;4.10;99.90;;;;;;5003194;28;20023;-66
2023/02/20 00:25:40;;;;;;;9.95;4.38;;;4.20;99.90;;;;;;5006837;28;20531;-67
2023/02/20 00:28:06;;;;;;;10.35;5.10;;;4.30;99.90;;;;;;5008225;28;20037;-66
2023/02/20 00:30:31;;;;;;;12.30;4.68;;;4.40;99.90;;;;;;5007316;28;20550;-66
2023/02/20 00:32:57;;;;;;;11.95;5.55;;;4.40;99.90;;;;;;5010025;28;20022;-67
2023/02/20 00:35:25;;;;;;;7.93;4.35;;;4.40;99.90;;;;;;5009104;28;20415;-67
2023/02/20 00:37:52;;;;;;;9.60;4.78;;;4.40;99.90;;;;;;5010242;28;20041;-67
2023/02/20 00:40:19;;;;;;;11.25;5.75;;;4.30;99.90;;;;;;5010470;28;20105;-66
2023/02/20 00:42:45;;;;;;;17.73;7.07;;;4.30;99.90;;;;;;5010252;28;20065;-66
2023/02/20 00:45:12;;;;;;;27.35;6.55;;;4.20;99.90;;;;;;4997770;28;20060;-67
2023/02/20 00:47:38;;;;;;;15.60;6.72;;;4.10;99.90;;;;;;4994224;28;20042;-66
2023/02/20 00:50:05;;;;;;;14.18;6.53;;;4.00;99.90;;;;;;5004677;28;20030;-66
2023/02/20 00:52:31;;;;;;;15.68;6.22;;;4.00;99.90;;;;;;5002925;28;20092;-66
2023/02/20 00:54:56;;;;;;;18.45;8.00;;;4.00;99.90;;;;;;5004771;28;20026;-66
2023/02/20 00:57:22;;;;;;;16.55;8.00;;;4.00;99.90;;;;;;4999962;28;20401;-66
2023/02/20 00:59:48;;;;;;;23.83;8.82;;;4.00;99.90;;;;;;5003803;28;20061;-66
2023/02/20 01:02:14;;;;;;;25.55;8.85;;;4.00;99.90;;;;;;5002481;28;20643;-66
2023/02/20 01:04:40;;;;;;;24.77;10.10;;;4.10;99.90;;;;;;4997910;28;20108;-66
2023/02/20 01:07:05;;;;;;;21.05;8.70;;;4.10;99.90;;;;;;4990104;28;20457;-66
2023/02/20 01:09:31;;;;;;;26.65;10.65;;;4.20;99.90;;;;;;5003150;28;20442;-66
2023/02/20 01:11:57;;;;;;;33.10;11.27;;;4.20;99.90;;;;;;4999282;28;20028;-66
2023/02/20 01:14:22;;;;;;;25.85;10.88;;;4.30;99.90;;;;;;5004051;28;20106;-66
2023/02/20 01:16:50;;;;;;;25.27;10.45;;;4.30;99.90;;;;;;5000367;28;20044;-66
2023/02/20 01:19:17;;;;;;;25.20;9.90;;;4.50;99.90;;;;;;4999689;28;20030;-67
2023/02/20 01:21:43;;;;;;;24.98;9.98;;;4.50;99.90;;;;;;5003273;28;20053;-66
2023/02/20 01:24:09;;;;;;;25.17;10.25;;;4.50;99.90;;;;;;4983044;28;20547;-66
2023/02/20 01:26:37;;;;;;;20.92;9.38;;;4.50;99.90;;;;;;5006647;28;20022;-67
2023/02/20 01:29:03;;;;;;;15.02;7.07;;;4.50;99.90;;;;;;5008002;28;20042;-67
2023/02/20 01:31:29;;;;;;;18.35;7.72;;;4.50;99.90;;;;;;5008494;28;20053;-67
2023/02/20 01:33:54;;;;;;;17.20;8.10;;;4.50;99.90;;;;;;5005939;28;20018;-65
2023/02/20 01:36:20;;;;;;;17.13;6.82;;;4.50;99.90;;;;;;5006611;28;20081;-66
2023/02/20 01:38:47;;;;;;;14.73;7.20;;;4.50;99.90;;;;;;5008115;28;20026;-67
2023/02/20 01:41:13;;;;;;;18.17;6.68;;;4.50;99.90;;;;;;5006849;28;20478;-66
2023/02/20 01:43:39;;;;;;;20.25;7.38;;;4.40;99.90;;;;;;5010023;28;20491;-67
2023/02/20 01:46:27;;;;;;;18.45;7.35;;;4.40;99.90;;;;;;4986439;28;20042;-67
2023/02/20 01:49:04;;;;;;;14.43;6.70;;;4.40;99.90;;;;;;5002360;28;20018;-67
2023/02/20 01:51:39;;;;;;;15.63;7.35;;;4.40;99.90;;;;;;5014150;28;20022;-66
2023/02/20 01:54:08;;;;;;;17.95;7.50;;;4.40;99.90;;;;;;5009407;28;20044;-66
2023/02/20 01:56:34;;;;;;;19.90;7.72;;;4.30;99.90;;;;;;4988126;28;21353;-68
2023/02/20 01:59:01;;;;;;;15.63;7.60;;;4.30;99.90;;;;;;5000582;28;20287;-66
2023/02/20 02:01:26;;;;;;;22.83;8.95;;;4.30;99.90;;;;;;5002076;28;20022;-66
2023/02/20 02:03:58;;;;;;;19.02;8.82;;;4.30;99.90;;;;;;5001371;28;20022;-66
2023/02/20 02:06:24;;;;;;;16.67;8.57;;;4.30;99.90;;;;;;5003453;28;20481;-66
2023/02/20 02:08:51;;;;;;;22.92;8.95;;;4.30;99.90;;;;;;5003647;28;20026;-67
2023/02/20 02:11:21;;;;;;;22.67;11.23;;;4.30;99.90;;;;;;5005504;28;20057;-67
2023/02/20 02:13:47;;;;;;;19.38;9.25;;;4.30;99.90;;;;;;5002656;28;20109;-67
2023/02/20 02:16:34;;;;;;;21.08;9.57;;;4.30;99.90;;;;;;5005051;28;20062;-66
2023/02/20 02:19:12;;;;;;;21.75;9.40;;;4.30;99.90;;;;;;4988343;28;20489;-66
2023/02/20 02:22:07;;;;;;;20.42;9.40;;;4.30;99.90;;;;;;5006500;28;20053;-66
2023/02/20 02:24:45;;;;;;;23.17;10.50;;;4.30;99.90;;;;;;5021201;28;20484;-66
2023/02/20 02:27:22;;;;;;;24.73;9.80;;;4.30;99.90;;;;;;5027560;28;20396;-67
2023/02/20 02:30:21;;;;;;;27.13;9.77;;;4.30;99.90;;;;;;5003977;28;20033;-66
2023/02/20 02:32:52;;;;;;;27.70;10.20;;;4.30;99.90;;;;;;5005123;28;20411;-67
2023/02/20 02:35:37;;;;;;;21.13;9.38;;;4.30;99.90;;;;;;4996420;28;20036;-67
2023/02/20 02:38:02;;;;;;;21.45;8.98;;;4.30;99.90;;;;;;5004901;28;20485;-66
2023/02/20 02:40:41;;;;;;;26.90;10.10;;;4.30;99.90;;;;;;5005198;28;20040;-67
2023/02/20 02:43:16;;;;;;;22.23;9.57;;;4.30;99.90;;;;;;5002923;28;20481;-66
2023/02/20 02:45:54;;;;;;;22.10;9.45;;;4.20;99.90;;;;;;5004442;28;20045;-66
2023/02/20 02:48:34;;;;;;;18.02;8.73;;;4.20;99.90;;;;;;4973479;28;20417;-66
2023/02/20 02:51:14;;;;;;;18.88;8.18;;;4.10;99.90;;;;;;4990492;28;20042;-67
2023/02/20 02:53:40;;;;;;;25.77;9.82;;;4.00;99.90;;;;;;5006398;28;20128;-67
2023/02/20 02:56:20;;;;;;;18.05;8.05;;;4.00;99.90;;;;;;5002142;28;20029;-67
2023/02/20 02:58:49;;;;;;;20.92;8.70;;;3.90;99.90;;;;;;5003551;28;20108;-67
2023/02/20 03:01:19;;;;;;;18.02;8.23;;;3.80;99.90;;;;;;5004660;28;20052;-67
2023/02/20 03:03:46;;;;;;;17.40;8.32;;;3.70;99.90;;;;;;5004401;28;20476;-66
2023/02/20 03:06:35;;;;;;;20.77;8.32;;;3.70;99.90;;;;;;5003579;28;20057;-66
2023/02/20 03:09:02;;;;;;;17.90;8.80;;;3.70;99.90;;;;;;4999859;28;20022;-67
2023/02/20 03:11:30;;;;;;;19.80;8.90;;;3.60;99.90;;;;;;5006891;28;20061;-66
2023/02/20 03:17:00;;;;;;;23.98;8.88;;;3.50;99.90;;;;;;4994079;28;21634;-67
2023/02/20 03:19:36;;;;;;;18.67;8.07;;;3.50;99.90;;;;;;5003101;28;20042;-67
2023/02/20 03:22:06;;;;;;;18.00;7.78;;;3.50;99.90;;;;;;5005533;28;20108;-67
2023/02/20 03:24:53;;;;;;;18.33;8.82;;;3.40;99.90;;;;;;5003338;28;20719;-66
2023/02/20 03:27:29;;;;;;;20.45;8.45;;;3.40;99.90;;;;;;5001650;28;20021;-67
2023/02/20 03:29:58;;;;;;;21.80;7.72;;;3.30;99.90;;;;;;5006609;28;20026;-67
2023/02/20 03:43:35;;;;;;;14.45;7.20;;;3.20;99.90;;;;;;5005906;28;20393;-67
2023/02/20 03:46:10;;;;;;;26.73;8.40;;;3.20;99.90;;;;;;5000702;28;20034;-67
2023/02/20 03:48:49;;;;;;;21.80;6.82;;;3.20;99.90;;;;;;4976952;28;20100;-67
2023/02/20 03:54:00;;;;;;;21.00;7.55;;;3.20;99.90;;;;;;5004527;28;20104;-67
2023/02/20 03:56:37;;;;;;;18.73;8.13;;;3.20;99.90;;;;;;4988069;28;20026;-67
2023/02/20 03:59:13;;;;;;;17.50;7.47;;;3.20;99.90;;;;;;4985902;28;20095;-67
2023/02/20 04:01:42;;;;;;;21.35;7.63;;;3.30;99.90;;;;;;4991371;28;20057;-66
2023/02/20 04:04:13;;;;;;;19.83;6.88;;;3.30;99.90;;;;;;4997519;28;20533;-66
2023/02/20 04:06:40;;;;;;;13.27;6.72;;;3.30;99.90;;;;;;4989017;28;20121;-66
2023/02/20 04:09:21;;;;;;;12.93;6.47;;;3.30;99.90;;;;;;5011265;28;20425;-66
2023/02/20 04:11:56;;;;;;;18.85;7.78;;;3.30;99.90;;;;;;5017871;28;20112;-67
2023/02/20 04:14:26;;;;;;;20.70;7.03;;;3.30;99.90;;;;;;4996713;28;20030;-66
2023/02/20 04:16:57;;;;;;;16.58;7.25;;;3.30;99.90;;;;;;5012542;28;20026;-66
2023/02/20 04:19:22;;;;;;;18.00;7.60;;;3.30;99.90;;;;;;4986214;28;20177;-66
2023/02/20 04:21:52;;;;;;;21.70;7.80;;;3.20;99.90;;;;;;4995943;28;20116;-66
2023/02/20 04:24:42;;;;;;;16.85;7.55;;;3.20;99.90;;;;;;4991186;28;20040;-66
2023/02/20 04:27:09;;;;;;;16.65;7.20;;;3.10;99.90;;;;;;4969672;28;20053;-66
2023/02/20 04:29:35;;;;;;;16.67;7.32;;;3.10;99.90;;;;;;4993145;28;20064;-66
2023/02/20 04:32:00;;;;;;;22.10;7.90;;;3.10;99.90;;;;;;5014917;28;20053;-66
2023/02/20 04:34:26;;;;;;;17.75;8.05;;;3.00;99.90;;;;;;5006712;28;20026;-66
2023/02/20 04:37:03;;;;;;;18.42;8.30;;;3.00;99.90;;;;;;5010609;28;20105;-67
2023/02/20 04:39:29;;;;;;;21.30;7.60;;;3.00;99.90;;;;;;5000838;28;20026;-66
2023/02/20 04:41:55;;;;;;;18.42;7.88;;;3.00;99.90;;;;;;4994240;28;20033;-66
2023/02/20 04:44:35;;;;;;;20.92;8.80;;;3.00;99.90;;;;;;5017901;28;20030;-66
2023/02/20 04:47:07;;;;;;;15.10;7.85;;;3.00;99.90;;;;;;4977158;28;20132;-66
2023/02/20 04:49:33;;;;;;;23.95;8.93;;;3.00;99.90;;;;;;5006549;28;20029;-67
2023/02/20 04:51:59;;;;;;;20.55;8.55;;;3.00;99.90;;;;;;5016298;28;20032;-66
2023/02/20 04:54:25;;;;;;;21.20;9.00;;;3.00;99.90;;;;;;5015196;28;20071;-67
2023/02/20 04:56:50;;;;;;;23.52;8.43;;;3.00;99.90;;;;;;5005149;28;20084;-67
2023/02/20 04:59:16;;;;;;;19.38;8.18;;;3.00;99.90;;;;;;5025364;28;20035;-66
2023/02/20 05:01:46;;;;;;;16.75;7.53;;;3.00;99.90;;;;;;5009024;28;20026;-67
2023/02/20 05:04:13;;;;;;;22.75;8.63;;;3.00;99.90;;;;;;5018137;28;20025;-67
2023/02/20 05:06:45;;;;;;;22.58;9.35;;;3.00;99.90;;;;;;5012488;28;20017;-67
2023/02/20 05:09:11;;;;;;;18.85;7.82;;;3.00;99.90;;;;;;5007556;28;20038;-67
2023/02/20 05:11:37;;;;;;;19.30;9.30;;;3.00;99.90;;;;;;5002145;28;20038;-67
2023/02/20 05:14:04;;;;;;;20.60;8.52;;;3.00;99.90;;;;;;5000446;28;20029;-66
2023/02/20 05:16:29;;;;;;;17.30;7.82;;;2.90;99.90;;;;;;5003469;28;20062;-67
2023/02/20 05:18:55;;;;;;;19.10;7.97;;;3.00;99.90;;;;;;4999520;28;20129;-67
2023/02/20 05:24:05;;;;;;;;;;;2.90;99.90;;;;;;5003812;28;20065;-67
2023/02/20 05:26:30;;;;;;;21.80;7.85;;;2.90;99.90;;;;;;5006195;28;20401;-67
2023/02/20 05:28:56;;;;;;;24.23;9.45;;;2.80;99.90;;;;;;5005944;28;20033;-66
2023/02/20 05:31:22;;;;;;;17.58;8.13;;;2.80;99.90;;;;;;5007611;28;20030;-67
2023/02/20 05:33:47;;;;;;;27.52;9.38;;;2.80;99.90;;;;;;5009531;28;20112;-67
2023/02/20 05:36:13;;;;;;;21.98;9.32;;;2.80;99.90;;;;;;5008595;28;20033;-67
2023/02/20 05:38:40;;;;;;;21.75;8.55;;;2.70;99.90;;;;;;5005385;28;20109;-67
2023/02/20 05:41:06;;;;;;;24.50;9.10;;;2.70;99.90;;;;;;5008563;28;20773;-67
2023/02/20 05:43:31;;;;;;;20.38;8.60;;;2.70;99.90;;;;;;5008463;28;20025;-67
2023/02/20 05:45:57;;;;;;;23.23;9.43;;;2.70;99.90;;;;;;5008749;28;20057;-67
2023/02/20 05:48:23;;;;;;;21.95;8.80;;;2.60;99.90;;;;;;4988526;28;20045;-67
2023/02/20 05:50:49;;;;;;;21.83;9.50;;;2.60;99.90;;;;;;5004263;28;20810;-67
2023/02/20 05:53:15;;;;;;;31.35;8.95;;;2.60;99.90;;;;;;5005238;28;20053;-67
2023/02/20 05:55:40;;;;;;;25.40;9.48;;;2.60;99.90;;;;;;5007469;28;20111;-67
2023/02/20 05:58:06;;;;;;;24.17;9.15;;;2.50;99.90;;;;;;5007295;28;20053;-67
2023/02/20 06:00:32;;;;;;;23.75;9.13;;;2.50;99.90;;;;;;5005448;28;20057;-66
2023/02/20 06:02:57;;;;;;;33.95;9.88;;;2.50;99.90;;;;;;5008894;28;20116;-67
2023/02/20 06:05:25;;;;;;;27.40;9.45;;;2.50;99.90;;;;;;5006511;28;20600;-67
2023/02/20 06:07:51;;;;;;;25.75;9.50;;;2.50;99.90;;;;;;5010867;28;20488;-67
2023/02/20 06:10:18;;;;;;;26.08;9.98;;;2.50;99.90;;;;;;5007128;28;20078;-67
2023/02/20 06:12:43;;;;;;;28.58;9.20;;;2.50;99.90;;;;;;5006050;28;20096;-67
2023/02/20 06:15:09;;;;;;;26.67;9.25;;;2.50;99.90;;;;;;5012167;28;20065;-67
2023/02/20 06:17:34;;;;;;;20.90;9.73;;;2.50;99.90;;;;;;5017724;28;20485;-67
2023/02/20 06:20:00;;;;;;;30.20;10.98;;;2.40;99.90;;;;;;5002324;28;20066;-67
2023/02/20 06:22:26;;;;;;;25.08;9.02;;;2.40;99.90;;;;;;5004478;28;20042;-67
2023/02/20 06:24:51;;;;;;;32.38;9.45;;;2.40;99.90;;;;;;5002237;28;20034;-67
2023/02/20 06:27:17;;;;;;;26.35;9.05;;;2.40;99.90;;;;;;5006097;28;20029;-67
2023/02/20 06:29:45;;;;;;;24.45;9.77;;;2.40;99.90;;;;;;5007332;28;20026;-67
2023/02/20 06:32:10;;;;;;;23.67;8.98;;;2.40;99.90;;;;;;5005852;28;20022;-67
2023/02/20 06:34:36;;;;;;;27.48;8.63;;;2.50;99.90;;;;;;5003803;28;20032;-67
2023/02/20 06:37:03;;;;;;;22.52;8.00;;;2.50;99.90;;;;;;5005252;28;20054;-67
2023/02/20 06:39:30;;;;;;;20.67;8.60;;;2.50;99.90;;;;;;5005069;28;20532;-67
2023/02/20 06:41:55;;;;;;;20.00;8.02;;;2.60;99.90;;;;;;5007824;28;20027;-67
2023/02/20 06:44:21;;;;;;;20.45;7.97;;;2.60;99.90;;;;;;5017291;28;20036;-67
2023/02/20 06:46:47;;;;;;;22.58;8.55;;;2.70;99.90;;;;;;5010163;28;20113;-68
2023/02/20 06:49:14;;;;;;;23.05;7.82;;;2.70;99.90;;;;;;4984343;28;20047;-67
2023/02/20 06:51:39;;;;;;;24.08;8.57;;;2.70;99.90;;;;;;5008263;28;20557;-67
2023/02/20 06:54:06;;;;;;;20.38;7.90;;;2.70;99.90;;;;;;5001643;28;20120;-67
2023/02/20 06:56:34;;;;;;;22.95;8.40;;;2.80;99.90;;;;;;5017151;28;20033;-67
2023/02/20 06:59:01;;;;;;;24.63;8.02;;;2.80;99.90;;;;;;5005449;28;20064;-67
2023/02/20 07:01:29;;;;;;;16.77;7.40;;;2.90;99.90;;;;;;5007724;28;20034;-67
2023/02/20 07:03:58;;;;;;;19.77;7.53;;;3.00;99.90;;;;;;5008969;28;20029;-68
2023/02/20 07:06:24;;;;;;;16.85;6.25;;;3.10;99.90;;;;;;5014206;28;20030;-67
2023/02/20 07:08:51;;;;;;;14.35;7.53;;;3.20;99.90;;;;;;5008441;28;20062;-67
2023/02/20 07:11:18;;;;;;;16.02;7.43;;;3.20;99.90;;;;;;5011592;28;20038;-67
2023/02/20 07:13:44;;;;;;;16.90;6.65;;;3.30;99.90;;;;;;5015000;28;20044;-67
2023/02/20 07:16:09;;;;;;;19.33;6.13;;;3.40;99.90;;;;;;5015355;28;20128;-68
2023/02/20 07:18:35;;;;;;;17.63;6.05;;;3.50;99.90;;;;;;5010556;28;20139;-67
2023/02/20 07:21:01;;;;;;;15.48;6.28;;;3.60;99.90;;;;;;5019825;28;20037;-73
2023/02/20 07:23:26;;;;;;;17.10;6.05;;;3.70;99.90;;;;;;5011917;28;20034;-67
2023/02/20 07:25:52;;;;;;;18.65;6.13;;;3.80;99.90;;;;;;5010215;28;20038;-67
2023/02/20 07:28:18;;;;;;;13.90;5.65;;;3.90;99.90;;;;;;5008277;28;20026;-68
2023/02/20 07:30:47;;;;;;;11.43;5.65;;;4.00;99.90;;;;;;5002595;28;20045;-68
2023/02/20 07:33:14;;;;;;;11.55;5.82;;;4.10;99.90;;;;;;4994278;28;20054;-68
2023/02/20 07:35:39;;;;;;;15.52;5.57;;;4.20;99.90;;;;;;5009060;28;20041;-67
2023/02/20 07:38:05;;;;;;;14.13;5.10;;;4.40;99.90;;;;;;5009717;28;20164;-67
2023/02/20 07:40:31;;;;;;;13.93;4.88;;;4.50;99.90;;;;;;5006872;28;20026;-67
2023/02/20 07:42:56;;;;;;;12.50;4.65;;;4.60;99.90;;;;;;5008093;28;20486;-67
2023/02/20 07:45:22;;;;;;;12.95;4.90;;;4.70;99.90;;;;;;5003264;28;20034;-67
2023/02/20 07:47:48;;;;;;;10.80;4.60;;;4.70;99.90;;;;;;5008625;28;20061;-68
2023/02/20 07:50:15;;;;;;;10.10;4.32;;;4.90;99.90;;;;;;4991919;28;20064;-67
2023/02/20 07:52:41;;;;;;;11.40;4.30;;;5.00;99.90;;;;;;5012260;28;20026;-68
2023/02/20 07:55:06;;;;;;;12.32;4.28;;;5.10;99.90;;;;;;5005999;28;20037;-67
2023/02/20 07:57:35;;;;;;;8.73;4.07;;;5.20;99.90;;;;;;5013770;28;20112;-67
2023/02/20 08:00:00;;;;;;;7.70;3.72;;;5.20;99.90;;;;;;5010062;28;20718;-67
2023/02/20 08:02:26;;;;;;;8.30;4.13;;;5.30;99.90;;;;;;5017846;28;20038;-67
2023/02/20 08:04:51;;;;;;;6.70;3.85;;;5.40;99.90;;;;;;5010648;28;20034;-67
2023/02/20 08:07:17;;;;;;;7.47;3.58;;;5.50;99.90;;;;;;5008254;28;20121;-68
2023/02/20 08:09:46;;;;;;;9.07;3.63;;;5.60;99.90;;;;;;4999348;28;20026;-67
2023/02/20 08:12:11;;;;;;;9.95;3.20;;;5.70;99.90;;;;;;5002191;28;20038;-66
2023/02/20 08:14:37;;;;;;;7.88;3.40;;;5.90;99.90;;;;;;5000505;28;20115;-67
2023/02/20 08:17:03;;;;;;;6.40;3.45;;;6.00;99.90;;;;;;5009145;28;20743;-68
2023/02/20 08:19:28;;;;;;;5.82;3.20;;;6.00;99.90;;;;;;5007373;28;20034;-67
2023/02/20 08:21:54;;;;;;;8.77;3.00;;;6.10;99.90;;;;;;5006704;28;20149;-67
2023/02/20 08:24:19;;;;;;;6.80;3.17;;;6.30;99.90;;;;;;5004252;28;20378;-67
2023/02/20 08:26:46;;;;;;;9.98;3.50;;;6.40;99.90;;;;;;5007406;28;20030;-66
2023/02/20 08:29:13;;;;;;;4.95;2.67;;;6.70;99.90;;;;;;5008091;28;20030;-68
2023/02/20 08:31:39;;;;;;;5.63;2.92;;;6.80;99.90;;;;;;4988469;28;20033;-67
2023/02/20 08:34:04;;;;;;;6.85;3.38;;;6.90;99.90;;;;;;5008894;28;20034;-68
2023/02/20 08:36:30;;;;;;;8.90;3.80;;;7.00;99.90;;;;;;5006311;28;20088;-68
2023/02/20 08:38:56;;;;;;;7.32;3.95;;;6.90;99.90;;;;;;5000356;28;20503;-67
2023/02/20 08:41:22;;;;;;;7.10;3.47;;;6.90;99.90;;;;;;5009741;28;20034;-68
2023/02/20 08:43:48;;;;;;;8.88;3.78;;;6.80;99.90;;;;;;5012890;28;20045;-67
2023/02/20 08:46:14;;;;;;;8.07;3.60;;;6.90;99.90;;;;;;5003122;28;20018;-68
2023/02/20 08:48:40;;;;;;;13.80;4.47;;;6.80;99.90;;;;;;5004261;28;20383;-68
2023/02/20 08:51:06;;;;;;;11.68;4.78;;;6.80;99.90;;;;;;4986714;28;20093;-68
2023/02/20 08:53:33;;;;;;;6.75;3.25;;;6.70;99.90;;;;;;5004077;28;20026;-67
2023/02/20 08:55:58;;;;;;;9.52;4.28;;;6.60;99.90;;;;;;5007487;28;20378;-67
2023/02/20 08:58:25;;;;;;;8.20;3.83;;;6.60;99.90;;;;;;5009758;28;20044;-67
2023/02/20 09:00:51;;;;;;;7.65;4.32;;;6.50;99.90;;;;;;5006663;28;20145;-67
2023/02/20 09:03:17;;;;;;;8.98;4.47;;;6.50;99.90;;;;;;5008229;28;20058;-67
2023/02/20 09:05:43;;;;;;;9.48;4.10;;;6.50;99.90;;;;;;5006903;28;20018;-67
2023/02/20 09:08:09;;;;;;;12.45;4.30;;;6.60;99.90;;;;;;5006565;28;20026;-67
2023/02/20 09:10:35;;;;;;;9.13;4.43;;;6.70;99.90;;;;;;5006897;28;20036;-67
2023/02/20 09:13:01;;;;;;;9.05;4.22;;;6.80;99.90;;;;;;5012487;28;20093;-67
2023/02/20 09:15:28;;;;;;;6.20;3.30;;;6.80;99.90;;;;;;5007948;28;20042;-67
2023/02/20 09:17:54;;;;;;;9.40;3.72;;;6.90;99.90;;;;;;5016533;28;20026;-67
2023/02/20 09:20:20;;;;;;;10.82;5.15;;;7.00;99.90;;;;;;5007356;28;20026;-67
2023/02/20 09:22:47;;;;;;;8.98;5.05;;;7.10;99.90;;;;;;5004245;28;20451;-67
2023/02/20 09:25:14;;;;;;;12.75;4.90;;;7.10;99.90;;;;;;4996266;28;21805;-68
2023/02/20 09:27:40;;;;;;;7.45;4.18;;;7.20;99.90;;;;;;5004387;28;20037;-67
2023/02/20 09:30:06;;;;;;;9.20;4.50;;;7.30;99.90;;;;;;5004477;28;20033;-67
2023/02/20 09:32:31;;;;;;;11.73;4.63;;;7.40;99.90;;;;;;5008175;28;20101;-68
2023/02/20 09:34:57;;;;;;;9.00;4.80;;;7.50;99.90;;;;;;5007634;28;20112;-67
2023/02/20 09:37:24;;;;;;;6.03;3.72;;;7.50;99.90;;;;;;5004025;28;20034;-67
2023/02/20 09:39:49;;;;;;;8.57;4.40;;;7.80;99.90;;;;;;4998025;28;20062;-68
2023/02/20 09:42:38;;;;;;;9.05;4.40;;;8.00;99.90;;;;;;5005173;28;20124;-68
2023/02/20 09:45:12;;;;;;;10.20;3.70;;;8.00;99.90;;;;;;5002695;28;20026;-68
2023/02/20 09:47:40;;;;;;;13.35;4.40;;;8.30;99.90;;;;;;5007773;28;20025;-66
2023/02/20 09:50:29;;;;;;;11.38;4.38;;;8.50;99.90;;;;;;4991419;28;20049;-67
2023/02/20 09:53:00;;;;;;;7.28;4.10;;;8.80;99.90;;;;;;5007846;28;20468;-65
2023/02/20 09:55:31;;;;;;;12.52;4.70;;;8.70;99.90;;;;;;5001733;28;20029;-66
2023/02/20 09:57:57;;;;;;;9.45;4.43;;;8.90;99.90;;;;;;5005763;28;20040;-66
2023/02/20 10:00:32;;;;;;;9.00;4.50;;;9.00;99.90;;;;;;5006478;28;20026;-68
2023/02/20 10:03:14;;;;;;;7.57;5.20;;;9.20;99.90;;;;;;5003067;28;20030;-68
2023/02/20 10:05:42;;;;;;;8.55;4.78;;;9.00;99.90;;;;;;5006454;28;20100;-68
2023/02/20 10:08:10;;;;;;;8.02;5.50;;;9.00;99.90;;;;;;5007599;28;20030;-68
2023/02/20 10:10:37;;;;;;;12.10;5.57;;;9.30;99.90;;;;;;5001977;28;20026;-69
2023/02/20 10:13:40;;;;;;;12.70;5.55;;;9.60;99.90;;;;;;5006402;28;20053;-68
2023/02/20 10:16:41;;;;;;;9.80;4.75;;;9.50;99.90;;;;;;5003686;28;20034;-68
2023/02/20 10:19:25;;;;;;;8.60;4.88;;;9.40;99.90;;;;;;5001882;28;20044;-68
2023/02/20 10:21:59;;;;;;;10.32;5.38;;;9.60;99.90;;;;;;5008239;28;20033;-68
2023/02/20 10:24:40;;;;;;;12.40;4.65;;;9.40;99.90;;;;;;5007476;28;20022;-68
2023/02/20 10:27:20;;;;;;;12.88;5.32;;;9.40;99.90;;;;;;5000890;28;20022;-66
2023/02/20 10:29:46;;;;;;;8.68;4.47;;;9.50;99.90;;;;;;5009349;28;20029;-66
2023/02/20 10:32:27;;;;;;;10.05;4.78;;;9.60;99.90;;;;;;5003451;28;20409;-66
2023/02/20 10:35:25;;;;;;;14.02;6.18;;;9.40;99.90;;;;;;5000547;28;20502;-66
2023/02/20 10:37:55;;;;;;;10.00;4.97;;;9.50;99.90;;;;;;4986762;28;20041;-67
2023/02/20 10:40:27;;;;;;;9.13;5.15;;;9.50;99.90;;;;;;5019109;28;20037;-66
2023/02/20 10:43:21;;;;;;;7.50;4.97;;;9.70;99.90;;;;;;5008848;28;20026;-67
2023/02/20 10:46:12;;;;;;;10.23;4.68;;;9.60;99.90;;;;;;4999803;28;20541;-67
2023/02/20 10:48:38;;;;;;;10.70;4.90;;;9.60;99.90;;;;;;5013472;28;20034;-67
2023/02/20 10:51:18;;;;;;;10.55;5.40;;;9.70;99.90;;;;;;4996840;28;20045;-67
2023/02/20 10:53:58;;;;;;;11.40;4.80;;;9.80;99.90;;;;;;5010304;28;20033;-67
2023/02/20 10:56:24;;;;;;;11.07;5.55;;;9.90;99.90;;;;;;5004444;28;20029;-67
2023/02/20 10:59:01;;;;;;;10.27;5.15;;;9.90;99.90;;;;;;5010515;28;20036;-68
2023/02/20 11:01:27;;;;;;;8.77;5.15;;;9.80;99.90;;;;;;5009647;28;20038;-67
2023/02/20 11:04:19;;;;;;;8.40;4.85;;;9.90;99.90;;;;;;5010184;28;20033;-67
2023/02/20 11:06:53;;;;;;;14.18;5.32;;;9.90;99.90;;;;;;5005923;28;20118;-67
2023/02/20 11:09:19;;;;;;;11.82;6.03;;;9.80;99.90;;;;;;5014458;28;20026;-67
2023/02/20 11:11:46;;;;;;;10.70;6.00;;;9.90;99.90;;;;;;5007804;28;20088;-68
2023/02/20 11:14:43;;;;;;;6.80;4.80;;;9.90;99.90;;;;;;5010425;28;20160;-67
2023/02/20 11:17:20;;;;;;;10.25;5.18;;;10.00;99.90;;;;;;5000191;28;20184;-67
2023/02/20 11:19:48;;;;;;;14.23;6.65;;;10.00;99.90;;;;;;5011436;28;20056;-67
2023/02/20 11:22:16;;;;;;;12.77;6.32;;;10.10;99.90;;;;;;5007479;28;20037;-67
2023/02/20 11:24:43;;;;;;;9.85;5.97;;;10.10;99.90;;;;;;4993479;28;20057;-67
2023/02/20 11:27:24;;;;;;;10.32;5.57;;;10.00;99.90;;;;;;5011670;28;20025;-67
2023/02/20 11:30:20;;;;;;;9.55;6.03;;;10.10;99.90;;;;;;5006684;28;20038;-67
2023/02/20 11:32:47;;;;;;;9.90;5.40;;;10.10;99.90;;;;;;5020562;28;20029;-67
2023/02/20 11:35:25;;;;;;;11.57;5.65;;;10.00;99.90;;;;;;5019476;28;20031;-67
2023/02/20 11:38:22;;;;;;;7.43;5.53;;;10.10;99.90;;;;;;5007729;28;20397;-66
2023/02/20 11:40:53;;;;;;;11.15;6.53;;;10.00;99.90;;;;;;5008407;28;20033;-67
2023/02/20 11:43:33;;;;;;;8.55;5.63;;;10.10;99.90;;;;;;5008674;28;20025;-67
2023/02/20 11:46:09;;;;;;;13.27;7.30;;;10.30;99.90;;;;;;5008004;28;20049;-67
2023/02/20 11:48:35;;;;;;;8.60;5.90;;;10.30;99.90;;;;;;5020316;28;20519;-67
2023/02/20 11:51:01;;;;;;;16.15;6.68;;;10.60;99.90;;;;;;4993738;28;20037;-67
2023/02/20 11:53:32;;;;;;;15.30;5.72;;;10.80;99.90;;;;;;4995079;28;20030;-67
2023/02/20 11:56:17;;;;;;;10.55;5.80;;;10.90;99.90;;;;;;5002453;28;20053;-67
2023/02/20 11:58:45;;;;;;;13.13;6.40;;;11.10;99.90;;;;;;5004613;28;20050;-67
2023/02/20 12:01:33;;;;;;;22.55;8.80;;;11.10;99.90;;;;;;5003051;28;20097;-67
2023/02/20 12:04:00;;;;;;;19.10;6.70;;;11.10;99.90;;;;;;5004067;28;20742;-67
2023/02/20 12:06:32;;;;;;;11.93;6.85;;;11.10;99.90;;;;;;5010373;28;20014;-67
2023/02/20 12:09:00;;;;;;;11.40;7.03;;;11.00;99.90;;;;;;5010268;28;20068;-66
2023/02/20 12:11:26;;;;;;;11.80;6.85;;;10.90;99.90;;;;;;5009131;28;20033;-67
2023/02/20 12:13:55;;;;;;;12.35;6.65;;;10.70;99.90;;;;;;5006830;28;20029;-67
2023/02/20 12:16:21;;;;;;;16.05;7.93;;;10.60;99.90;;;;;;5006162;28;20030;-67
2023/02/20 12:18:59;;;;;;;14.82;7.38;;;10.40;99.90;;;;;;5010285;28;20052;-68
2023/02/20 12:21:38;;;;;;;12.77;6.95;;;10.40;99.90;;;;;;5005324;28;20033;-67
2023/02/20 12:24:13;;;;;;;15.43;6.78;;;10.30;99.90;;;;;;5004566;28;20713;-66
2023/02/20 12:26:44;;;;;;;14.65;7.53;;;10.30;99.90;;;;;;5005357;28;20522;-66
2023/02/20 12:29:32;;;;;;;14.70;8.52;;;10.50;99.90;;;;;;5001788;28;20022;-67
2023/02/20 12:32:35;;;;;;;13.63;7.10;;;10.60;99.90;;;;;;4995830;28;20034;-67
2023/02/20 12:35:24;;;;;;;16.33;7.18;;;10.70;99.90;;;;;;5002613;28;20034;-67
2023/02/20 12:38:11;;;;;;;11.90;7.72;;;11.10;99.90;;;;;;5001498;28;20588;-67
2023/02/20 12:40:59;;;;;;;13.50;6.35;;;11.40;99.90;;;;;;5003672;28;20026;-67
2023/02/20 12:43:56;;;;;;;9.93;6.20;;;11.90;99.90;;;;;;5005278;28;20527;-67
2023/02/20 12:46:34;;;;;;;9.45;5.55;;;12.10;99.90;;;;;;5018933;28;20463;-67
2023/02/20 12:49:19;;;;;;;13.23;6.63;;;12.00;99.90;;;;;;5011978;28;20418;-67
2023/02/20 12:51:56;;;;;;;14.27;7.65;;;11.80;99.90;;;;;;4989659;28;20046;-67
2023/02/20 12:54:48;;;;;;;19.00;7.85;;;11.60;99.90;;;;;;5005326;28;20416;-67
2023/02/20 12:57:21;;;;;;;12.73;7.00;;;11.30;99.90;;;;;;5005993;28;20034;-67
2023/02/20 12:59:58;;;;;;;12.52;7.55;;;11.20;99.90;;;;;;5014103;28;20018;-67
2023/02/20 13:02:38;;;;;;;14.02;8.35;;;11.00;99.90;;;;;;5001873;28;20042;-67
2023/02/20 13:05:08;;;;;;;15.77;7.68;;;10.90;99.90;;;;;;5006570;28;20409;-67
2023/02/20 13:07:37;;;;;;;16.80;8.00;;;10.90;99.90;;;;;;5008297;28;20029;-66
2023/02/20 13:10:18;;;;;;;14.95;6.93;;;10.90;99.90;;;;;;5016536;28;20700;-67
2023/02/20 13:12:43;;;;;;;17.55;8.95;;;10.90;99.90;;;;;;5007580;28;20029;-67
2023/02/20 13:15:21;;;;;;;19.88;8.85;;;11.10;99.90;;;;;;5009596;28;20057;-67
2023/02/20 13:18:05;;;;;;;14.02;7.45;;;11.10;99.90;;;;;;5006922;28;20517;-67
2023/02/20 13:20:34;;;;;;;;;;;11.30;99.90;;;;;;5011860;28;20053;-67
2023/02/20 13:23:22;;;;;;;17.40;7.75;;;11.50;99.90;;;;;;5015509;28;19909;-67
2023/02/20 13:25:49;;;;;;;15.13;8.05;;;11.70;99.90;;;;;;5015091;28;20046;-67